createdAt,value
2018-08-16T00:01:32.373Z,6.23
2018-08-16T00:04:00.776Z,6.33
2018-08-16T00:06:29.302Z,6.10
2018-08-16T00:08:58.335Z,5.80
2018-08-16T00:11:26.824Z,6.70
2018-08-16T00:13:56.143Z,6.20
2018-08-16T00:16:24.611Z,5.93
2018-08-16T00:18:53.135Z,6.00
2018-08-16T00:21:21.555Z,6.60
2018-08-16T00:23:50.092Z,5.87
2018-08-16T00:26:18.882Z,6.67
2018-08-16T00:28:47.283Z,6.50
2018-08-16T00:31:15.692Z,5.90
2018-08-16T00:33:44.458Z,6.50
2018-08-16T00:36:12.942Z,5.87
2018-08-16T00:38:41.964Z,6.53
2018-08-16T00:41:10.411Z,6.97
2018-08-16T00:43:38.881Z,6.33
2018-08-16T00:46:07.647Z,6.50
2018-08-16T00:48:36.048Z,6.30
2018-08-16T00:51:04.444Z,6.00
2018-08-16T00:53:33.229Z,6.27
2018-08-16T00:56:01.640Z,5.90
2018-08-16T00:58:30.067Z,6.00
2018-08-16T01:00:58.536Z,5.87
2018-08-16T01:03:27.021Z,6.07
2018-08-16T01:05:56.484Z,6.00
2018-08-16T01:08:24.932Z,6.80
2018-08-16T01:10:53.352Z,6.10
2018-08-16T01:13:21.751Z,6.20
2018-08-16T01:15:51.356Z,6.17
2018-08-16T01:18:19.791Z,5.90
2018-08-16T01:20:48.240Z,5.80
2018-08-16T01:23:16.988Z,5.20
2018-08-16T01:25:45.364Z,6.10
2018-08-16T01:28:13.852Z,6.60
2018-08-16T01:30:42.334Z,6.27
2018-08-16T01:33:11.409Z,7.37
2018-08-16T01:35:39.937Z,6.57
2018-08-16T01:38:08.357Z,5.83
2018-08-16T01:40:37.708Z,5.90
2018-08-16T01:43:06.177Z,6.60
2018-08-16T01:45:34.648Z,7.20
2018-08-16T01:48:03.047Z,6.47
2018-08-16T01:50:31.465Z,6.40
2018-08-16T01:52:59.852Z,6.30
2018-08-16T01:55:28.303Z,6.47
2018-08-16T01:57:57.384Z,6.57
2018-08-16T02:00:25.824Z,6.20
2018-08-16T02:02:54.318Z,6.40
2018-08-16T02:05:22.796Z,6.23
2018-08-16T02:07:51.262Z,6.13
2018-08-16T02:10:19.720Z,6.30
2018-08-16T02:12:48.133Z,6.40
2018-08-16T02:15:16.515Z,6.27
2018-08-16T02:17:44.973Z,5.80
2018-08-16T02:20:14.732Z,6.60
2018-08-16T02:22:43.829Z,6.00
2018-08-16T02:25:12.285Z,5.87
2018-08-16T02:27:40.732Z,4.87
2018-08-16T02:30:09.925Z,6.20
2018-08-16T02:32:38.895Z,6.50
2018-08-16T02:35:08.773Z,6.07
2018-08-16T02:37:37.208Z,6.10
2018-08-16T02:40:06.932Z,6.80
2018-08-16T02:42:35.380Z,6.80
2018-08-16T02:45:03.837Z,6.13
2018-08-16T02:47:32.256Z,6.17
2018-08-16T02:50:00.634Z,6.50
2018-08-16T02:52:29.600Z,7.00
2018-08-16T02:54:58.028Z,6.20
2018-08-16T02:57:26.491Z,6.03
2018-08-16T02:59:54.915Z,6.67
2018-08-16T03:02:23.428Z,5.60
2018-08-16T03:04:51.824Z,5.73
2018-08-16T03:07:20.251Z,5.90
2018-08-16T03:09:48.644Z,6.10
2018-08-16T03:12:17.721Z,5.63
2018-08-16T03:14:46.140Z,6.13
2018-08-16T03:17:14.548Z,5.90
2018-08-16T03:19:42.992Z,5.83
2018-08-16T03:22:11.428Z,7.13
2018-08-16T03:24:39.865Z,6.47
2018-08-16T03:27:08.415Z,6.70
2018-08-16T03:29:36.840Z,6.13
2018-08-16T03:32:05.628Z,6.30
2018-08-16T03:34:34.181Z,5.87
2018-08-16T03:37:02.777Z,6.47
2018-08-16T03:39:31.205Z,5.80
2018-08-16T03:41:59.647Z,6.63
2018-08-16T03:44:28.064Z,5.97
2018-08-16T03:46:56.441Z,5.43
2018-08-16T03:49:24.854Z,5.30
2018-08-16T03:51:53.281Z,5.97
2018-08-16T03:54:21.728Z,6.30
2018-08-16T03:56:50.829Z,6.83
2018-08-16T03:59:19.288Z,6.13
2018-08-16T04:01:47.756Z,7.77
2018-08-16T04:04:16.184Z,7.07
2018-08-16T04:06:45.151Z,7.60
2018-08-16T04:09:13.649Z,6.03
2018-08-16T04:11:42.289Z,6.60
2018-08-16T04:14:11.682Z,7.20
2018-08-16T04:16:40.132Z,6.97
2018-08-16T04:19:08.631Z,6.90
2018-08-16T04:21:37.020Z,8.07
2018-08-16T04:24:05.481Z,7.50
2018-08-16T04:26:33.897Z,6.83
2018-08-16T04:29:02.353Z,7.70
2018-08-16T04:31:32.284Z,6.77
2018-08-16T04:34:00.702Z,7.40
2018-08-16T04:36:29.124Z,7.73
2018-08-16T04:38:57.515Z,7.30
2018-08-16T04:41:25.994Z,7.10
2018-08-16T04:43:54.398Z,8.33
2018-08-16T04:46:22.772Z,7.70
2018-08-16T04:48:51.204Z,8.63
2018-08-16T04:51:19.638Z,8.57
2018-08-16T04:53:48.056Z,8.77
2018-08-16T04:56:16.479Z,7.80
2018-08-16T04:58:44.921Z,7.60
2018-08-16T05:01:13.372Z,7.80
2018-08-16T05:03:41.883Z,7.73
2018-08-16T05:06:10.508Z,8.00
2018-08-16T05:08:38.968Z,7.37
2018-08-16T05:11:07.470Z,8.63
2018-08-16T05:13:35.852Z,8.10
2018-08-16T05:16:04.309Z,7.40
2018-08-16T05:18:32.764Z,7.93
2018-08-16T05:21:01.207Z,8.87
2018-08-16T05:23:29.576Z,8.10
2018-08-16T05:25:58.033Z,7.83
2018-08-16T05:28:26.444Z,7.30
2018-08-16T05:30:54.869Z,8.40
2018-08-16T05:33:29.072Z,8.17
2018-08-16T05:35:57.611Z,8.90
2018-08-16T05:38:26.128Z,9.57
2018-08-16T05:40:54.587Z,9.00
2018-08-16T05:43:23.129Z,8.67
2018-08-16T05:45:51.538Z,9.87
2018-08-16T05:48:19.957Z,10.80
2018-08-16T05:50:48.481Z,10.00
2018-08-16T05:53:16.800Z,11.97
2018-08-16T05:55:45.193Z,11.50
2018-08-16T05:58:13.628Z,11.30
2018-08-16T06:00:42.069Z,11.20
2018-08-16T06:03:10.677Z,11.83
2018-08-16T06:05:39.138Z,12.27
2018-08-16T06:08:07.620Z,13.40
2018-08-16T06:10:36.096Z,12.70
2018-08-16T06:13:04.563Z,12.13
2018-08-16T06:15:33.126Z,13.83
2018-08-16T06:18:01.531Z,13.03
2018-08-16T06:20:29.975Z,13.47
2018-08-16T06:22:58.480Z,11.90
2018-08-16T06:25:26.936Z,12.43
2018-08-16T06:27:55.372Z,12.43
2018-08-16T06:30:23.892Z,12.17
2018-08-16T06:32:52.336Z,12.37
2018-08-16T06:35:20.776Z,12.47
2018-08-16T06:37:49.264Z,12.60
2018-08-16T06:40:18.137Z,12.67
2018-08-16T06:42:47.661Z,13.27
2018-08-16T06:45:16.170Z,13.83
2018-08-16T06:47:44.635Z,12.57
2018-08-16T06:50:13.108Z,14.90
2018-08-16T06:52:41.673Z,13.30
2018-08-16T06:55:10.761Z,13.57
2018-08-16T06:57:39.231Z,13.20
2018-08-16T07:00:08.264Z,12.83
2018-08-16T07:02:36.913Z,13.73
2018-08-16T07:05:06.239Z,13.90
2018-08-16T07:07:34.657Z,14.57
2018-08-16T07:10:03.095Z,12.80
2018-08-16T07:12:31.645Z,14.23
2018-08-16T07:15:00.105Z,13.93
2018-08-16T07:17:28.571Z,13.57
2018-08-16T07:19:57.049Z,15.13
2018-08-16T07:22:25.447Z,13.87
2018-08-16T07:24:53.931Z,13.57
2018-08-16T07:27:22.325Z,14.00
2018-08-16T07:29:50.817Z,14.10
2018-08-16T07:32:19.544Z,13.47
2018-08-16T07:34:47.953Z,13.80
2018-08-16T07:37:16.457Z,12.37
2018-08-16T07:39:44.904Z,13.33
2018-08-16T07:42:13.336Z,13.97
2018-08-16T07:44:41.796Z,13.13
2018-08-16T07:47:10.283Z,14.50
2018-08-16T07:49:38.816Z,13.60
2018-08-16T07:52:07.417Z,13.37
2018-08-16T07:54:35.763Z,13.60
2018-08-16T07:57:04.484Z,13.97
2018-08-16T07:59:32.947Z,12.90
2018-08-16T08:02:02.500Z,11.83
2018-08-16T08:07:23.321Z,11.83
2018-08-16T08:09:51.812Z,13.03
2018-08-16T08:12:20.251Z,12.37
2018-08-16T08:14:48.711Z,11.60
2018-08-16T08:17:17.163Z,11.37
2018-08-16T08:19:46.573Z,11.93
2018-08-16T08:22:15.001Z,10.50
2018-08-16T08:24:43.456Z,9.20
2018-08-16T08:27:11.912Z,9.93
2018-08-16T08:29:40.343Z,11.37
2018-08-16T08:32:08.791Z,10.80
2018-08-16T08:34:37.318Z,9.00
2018-08-16T08:37:17.078Z,8.57
2018-08-16T08:39:45.571Z,8.07
2018-08-16T08:42:14.017Z,9.40
2018-08-16T08:44:42.511Z,9.30
2018-08-16T08:47:11.230Z,8.33
2018-08-16T08:49:39.677Z,9.47
2018-08-16T08:52:08.245Z,9.20
2018-08-16T08:54:52.149Z,8.67
2018-08-16T08:57:32.611Z,9.13
2018-08-16T09:00:01.079Z,8.67
2018-08-16T09:02:29.561Z,9.90
2018-08-16T09:04:58.096Z,8.97
2018-08-16T09:07:26.605Z,9.03
2018-08-16T09:11:17.168Z,9.90
2018-08-16T09:14:01.116Z,7.60
2018-08-16T09:16:33.822Z,8.50
2018-08-16T09:19:02.622Z,8.63
2018-08-16T09:21:31.590Z,9.13
2018-08-16T09:24:00.722Z,17.70
2018-08-16T09:26:34.289Z,11.10
2018-08-16T09:29:02.947Z,9.10
2018-08-16T09:31:43.491Z,7.80
2018-08-16T09:34:27.344Z,8.40
2018-08-16T09:36:55.776Z,8.87
2018-08-16T09:39:24.351Z,8.77
2018-08-16T09:41:52.724Z,9.20
2018-08-16T09:44:21.178Z,8.00
2018-08-16T09:47:07.096Z,8.53
2018-08-16T09:49:41.488Z,9.27
2018-08-16T09:52:10.970Z,9.80
2018-08-16T09:54:39.492Z,10.10
2018-08-16T09:57:09.090Z,9.57
2018-08-16T09:59:37.540Z,8.30
2018-08-16T10:02:07.594Z,8.73
2018-08-16T10:04:36.084Z,8.33
2018-08-16T10:07:04.695Z,9.87
2018-08-16T10:09:33.152Z,10.37
2018-08-16T10:12:02.668Z,9.90
2018-08-16T10:14:31.385Z,11.50
2018-08-16T10:16:59.880Z,11.10
2018-08-16T10:19:28.983Z,13.23
2018-08-16T10:21:57.541Z,11.50
2018-08-16T10:24:25.989Z,11.90
2018-08-16T10:26:54.530Z,11.00
2018-08-16T10:29:22.911Z,10.60
2018-08-16T10:31:51.338Z,13.17
2018-08-16T10:34:19.879Z,10.63
2018-08-16T10:36:48.296Z,10.00
2018-08-16T10:39:17.856Z,14.50
2018-08-16T10:41:46.395Z,11.07
2018-08-16T10:44:15.243Z,10.60
2018-08-16T10:46:43.773Z,11.70
2018-08-16T10:49:12.189Z,10.73
2018-08-16T10:51:40.653Z,11.87
2018-08-16T10:54:09.136Z,9.57
2018-08-16T10:56:37.614Z,9.70
2018-08-16T10:59:06.303Z,14.23
2018-08-16T11:01:34.709Z,10.57
2018-08-16T11:04:04.140Z,10.37
2018-08-16T11:06:32.614Z,10.10
2018-08-16T11:09:01.110Z,10.30
2018-08-16T11:11:29.532Z,11.03
2018-08-16T11:13:57.963Z,10.33
2018-08-16T11:16:26.461Z,10.37
2018-08-16T11:18:54.893Z,11.10
2018-08-16T11:21:23.296Z,10.43
2018-08-16T11:23:51.815Z,10.60
2018-08-16T11:26:20.237Z,10.37
2018-08-16T11:28:48.648Z,9.40
2018-08-16T11:31:17.189Z,10.50
2018-08-16T11:33:45.632Z,14.10
2018-08-16T11:36:14.029Z,11.20
2018-08-16T11:38:42.490Z,11.53
2018-08-16T11:41:10.968Z,10.37
2018-08-16T11:43:39.409Z,10.60
2018-08-16T11:46:07.884Z,11.30
2018-08-16T11:48:36.315Z,11.40
2018-08-16T11:51:04.821Z,10.33
2018-08-16T11:53:33.309Z,11.00
2018-08-16T11:56:01.753Z,11.10
2018-08-16T11:58:30.190Z,11.03
2018-08-16T12:00:58.630Z,10.30
2018-08-16T12:03:27.057Z,11.70
2018-08-16T12:05:56.109Z,10.67
2018-08-16T12:08:24.547Z,10.33
2018-08-16T12:10:53.202Z,15.50
2018-08-16T12:13:21.630Z,10.90
2018-08-16T12:15:50.058Z,9.67
2018-08-16T12:18:18.481Z,9.97
2018-08-16T12:20:46.939Z,10.80
2018-08-16T12:23:15.396Z,10.13
2018-08-16T12:25:44.842Z,9.33
2018-08-16T12:28:13.285Z,9.83
2018-08-16T12:30:41.704Z,10.00
2018-08-16T12:33:11.589Z,10.10
2018-08-16T12:35:40.010Z,9.47
2018-08-16T12:38:08.512Z,9.90
2018-08-16T12:40:37.004Z,9.30
2018-08-16T12:43:05.452Z,9.53
2018-08-16T12:45:33.885Z,10.40
2018-08-16T12:48:02.265Z,10.80
2018-08-16T12:50:30.713Z,10.53
2018-08-16T12:53:00.683Z,9.73
2018-08-16T12:55:29.092Z,9.97
2018-08-16T12:57:57.509Z,12.30
2018-08-16T13:00:25.980Z,9.20
2018-08-16T13:02:54.417Z,9.10
2018-08-16T13:05:22.916Z,9.93
2018-08-16T13:07:51.363Z,8.57
2018-08-16T13:10:19.831Z,9.67
2018-08-16T13:12:48.294Z,9.40
2018-08-16T13:15:17.341Z,8.57
2018-08-16T13:17:46.026Z,9.30
2018-08-16T13:20:14.494Z,10.23
2018-08-16T13:22:42.912Z,9.87
2018-08-16T13:25:11.341Z,8.30
2018-08-16T13:27:39.855Z,8.30
2018-08-16T13:30:08.821Z,10.77
2018-08-16T13:32:37.408Z,8.77
2018-08-16T13:35:05.888Z,8.97
2018-08-16T13:37:34.335Z,9.10
2018-08-16T13:40:02.805Z,8.83
2018-08-16T13:42:32.341Z,9.00
2018-08-16T13:45:00.716Z,9.23
2018-08-16T13:47:29.183Z,8.40
2018-08-16T13:49:57.608Z,12.17
2018-08-16T13:52:26.053Z,8.87
2018-08-16T13:54:55.025Z,8.63
2018-08-16T13:57:23.392Z,9.00
2018-08-16T13:59:52.663Z,8.87
2018-08-16T14:02:21.085Z,9.33
2018-08-16T14:04:49.583Z,9.57
2018-08-16T14:07:18.033Z,8.67
2018-08-16T14:09:46.476Z,9.20
2018-08-16T14:12:14.961Z,9.20
2018-08-16T14:14:43.426Z,8.70
2018-08-16T14:17:11.887Z,9.80
2018-08-16T14:19:40.256Z,9.60
2018-08-16T14:22:08.765Z,8.70
2018-08-16T14:24:37.192Z,9.37
2018-08-16T14:27:05.652Z,9.87
2018-08-16T14:29:34.094Z,10.40
2018-08-16T14:32:02.558Z,9.77
2018-08-16T14:34:30.982Z,10.23
2018-08-16T14:37:00.421Z,12.70
2018-08-16T14:39:28.873Z,9.30
2018-08-16T14:41:57.314Z,8.67
2018-08-16T14:44:25.715Z,10.23
2018-08-16T14:46:54.191Z,9.13
2018-08-16T14:49:22.772Z,11.10
2018-08-16T14:51:51.277Z,10.17
2018-08-16T14:54:19.672Z,10.00
2018-08-16T14:56:48.097Z,10.77
2018-08-16T14:59:16.655Z,9.67
2018-08-16T15:01:45.133Z,10.50
2018-08-16T15:04:13.576Z,10.33
2018-08-16T15:06:42.295Z,10.43
2018-08-16T15:09:11.791Z,9.90
2018-08-16T15:11:41.156Z,10.10
2018-08-16T15:14:09.565Z,9.43
2018-08-16T15:16:38.241Z,9.80
2018-08-16T15:19:06.728Z,10.40
2018-08-16T15:21:35.297Z,10.10
2018-08-16T15:24:03.900Z,9.37
2018-08-16T15:26:32.343Z,8.93
2018-08-16T15:29:00.722Z,8.80
2018-08-16T15:31:29.453Z,9.30
2018-08-16T15:33:57.893Z,10.00
2018-08-16T15:36:26.292Z,12.50
2018-08-16T15:38:55.001Z,9.77
2018-08-16T15:41:24.228Z,9.37
2018-08-16T15:43:52.675Z,10.00
2018-08-16T15:46:21.161Z,10.00
2018-08-16T15:48:49.571Z,10.13
2018-08-16T15:51:18.031Z,9.20
2018-08-16T15:53:46.477Z,9.70
2018-08-16T15:56:15.919Z,10.17
2018-08-16T15:58:44.320Z,8.77
2018-08-16T16:01:12.775Z,10.53
2018-08-16T16:03:41.165Z,10.10
2018-08-16T16:06:09.734Z,10.10
2018-08-16T16:08:38.093Z,9.67
2018-08-16T16:11:06.735Z,9.83
2018-08-16T16:13:35.558Z,9.20
2018-08-16T16:16:04.042Z,9.07
2018-08-16T16:18:33.309Z,8.60
2018-08-16T16:21:01.731Z,8.90
2018-08-16T16:23:30.738Z,9.03
2018-08-16T16:25:59.174Z,9.40
2018-08-16T16:28:27.602Z,10.00
2018-08-16T16:30:56.064Z,10.90
2018-08-16T16:33:24.496Z,9.90
2018-08-16T16:35:53.007Z,9.77
2018-08-16T16:38:21.620Z,8.67
2018-08-16T16:40:50.097Z,8.63
2018-08-16T16:43:18.608Z,9.90
2018-08-16T16:45:47.052Z,9.30
2018-08-16T16:48:15.451Z,9.20
2018-08-16T16:50:43.912Z,8.93
2018-08-16T16:53:12.348Z,9.13
2018-08-16T16:55:40.864Z,9.87
2018-08-16T16:58:09.927Z,9.00
2018-08-16T17:00:38.342Z,9.57
2018-08-16T17:03:06.832Z,10.20
2018-08-16T17:05:35.380Z,9.70
2018-08-16T17:08:03.837Z,9.57
2018-08-16T17:10:32.389Z,12.73
2018-08-16T17:13:00.728Z,9.70
2018-08-16T17:15:29.301Z,11.20
2018-08-16T17:17:58.325Z,10.90
2018-08-16T17:20:26.736Z,10.37
2018-08-16T17:22:55.208Z,9.20
2018-08-16T17:25:23.616Z,9.30
2018-08-16T17:27:52.271Z,9.20
2018-08-16T17:30:20.691Z,8.27
2018-08-16T17:32:49.120Z,9.50
2018-08-16T17:35:17.550Z,9.37
2018-08-16T17:37:45.991Z,9.93
2018-08-16T17:40:14.459Z,10.00
2018-08-16T17:42:44.869Z,10.20
2018-08-16T17:45:13.277Z,9.90
2018-08-16T17:47:41.928Z,10.23
2018-08-16T17:50:10.847Z,9.63
2018-08-16T17:52:39.489Z,9.23
2018-08-16T17:55:08.491Z,10.33
2018-08-16T17:57:37.159Z,9.53
2018-08-16T18:00:07.312Z,10.10
2018-08-16T18:02:35.849Z,11.07
2018-08-16T18:05:04.358Z,9.57
2018-08-16T18:07:32.837Z,9.63
2018-08-16T18:10:01.348Z,11.50
2018-08-16T18:12:29.780Z,9.47
2018-08-16T18:14:58.173Z,9.87
2018-08-16T18:17:26.682Z,10.23
2018-08-16T18:19:55.688Z,9.57
2018-08-16T18:22:24.141Z,10.60
2018-08-16T18:24:52.586Z,10.20
2018-08-16T18:27:21.060Z,10.07
2018-08-16T18:29:49.973Z,10.50
2018-08-16T18:32:18.478Z,10.03
2018-08-16T18:34:46.941Z,9.60
2018-08-16T18:37:15.376Z,10.40
2018-08-16T18:39:43.901Z,9.40
2018-08-16T18:42:12.400Z,10.63
2018-08-16T18:44:40.860Z,12.03
2018-08-16T18:47:09.289Z,40.67
2018-08-16T18:49:37.728Z,20.77
2018-08-16T18:52:06.341Z,13.67
2018-08-16T18:54:34.868Z,11.10
2018-08-16T18:57:03.345Z,9.17
2018-08-16T18:59:31.851Z,11.00
2018-08-16T19:02:00.301Z,12.80
2018-08-16T19:04:28.749Z,11.17
2018-08-16T19:06:57.492Z,12.10
2018-08-16T19:09:26.876Z,11.20
2018-08-16T19:11:55.648Z,11.30
2018-08-16T19:14:24.154Z,9.33
2018-08-16T19:16:52.563Z,10.70
2018-08-16T19:19:21.021Z,11.23
2018-08-16T19:21:49.580Z,16.77
2018-08-16T19:24:18.180Z,14.13
2018-08-16T19:26:46.671Z,16.13
2018-08-16T19:29:15.208Z,16.10
2018-08-16T19:31:43.711Z,11.30
2018-08-16T19:34:12.378Z,10.93
2018-08-16T19:36:40.847Z,10.60
2018-08-16T19:39:11.484Z,10.97
2018-08-16T19:41:40.085Z,11.40
2018-08-16T19:44:08.680Z,10.90
2018-08-16T19:46:37.163Z,10.87
2018-08-16T19:49:06.252Z,12.70
2018-08-16T19:51:34.758Z,29.00
2018-08-16T19:54:03.249Z,20.27
2018-08-16T19:56:31.770Z,12.30
2018-08-16T19:59:00.209Z,11.77
2018-08-16T20:01:28.836Z,12.90
2018-08-16T20:03:57.243Z,10.97
2018-08-16T20:06:25.671Z,10.70
2018-08-16T20:08:54.142Z,11.53
2018-08-16T20:11:22.722Z,12.83
2018-08-16T20:13:51.214Z,11.67
2018-08-16T20:16:19.732Z,12.37
2018-08-16T20:18:48.238Z,11.80
2018-08-16T20:21:16.878Z,11.30
2018-08-16T20:23:45.354Z,11.53
2018-08-16T20:26:13.853Z,11.43
2018-08-16T20:28:42.326Z,11.73
2018-08-16T20:31:11.693Z,11.60
2018-08-16T20:33:40.137Z,11.40
2018-08-16T20:36:08.704Z,22.70
2018-08-16T20:38:37.171Z,17.90
2018-08-16T20:41:05.646Z,18.53
2018-08-16T20:43:34.200Z,12.70
2018-08-16T20:46:02.811Z,12.10
2018-08-16T20:48:31.280Z,11.83
2018-08-16T20:50:59.765Z,12.10
2018-08-16T20:53:28.274Z,10.50
2018-08-16T20:55:56.732Z,12.07
2018-08-16T20:58:25.211Z,12.67
2018-08-16T21:00:53.702Z,18.83
2018-08-16T21:03:22.220Z,12.00
2018-08-16T21:05:50.805Z,13.20
2018-08-16T21:08:20.099Z,15.30
2018-08-16T21:10:49.009Z,12.53
2018-08-16T21:13:18.204Z,12.30
2018-08-16T21:15:46.661Z,14.03
2018-08-16T21:18:15.147Z,16.57
2018-08-16T21:20:43.654Z,15.90
2018-08-16T21:23:12.065Z,13.50
2018-08-16T21:25:40.553Z,13.23
2018-08-16T21:28:08.964Z,14.93
2018-08-16T21:30:37.497Z,14.07
2018-08-16T21:33:05.892Z,14.87
2018-08-16T21:35:34.916Z,14.47
2018-08-16T21:38:03.333Z,13.50
2018-08-16T21:40:31.820Z,13.80
2018-08-16T21:43:00.221Z,12.17
2018-08-16T21:45:28.638Z,13.40
2018-08-16T21:47:57.112Z,14.90
2018-08-16T21:50:25.506Z,14.60
2018-08-16T21:52:53.982Z,15.33
2018-08-16T21:55:22.404Z,13.70
2018-08-16T21:57:50.886Z,13.73
2018-08-16T22:00:33.327Z,14.20
2018-08-16T22:03:01.784Z,15.03
2018-08-16T22:05:40.098Z,14.57
2018-08-16T22:08:11.012Z,14.17
2018-08-16T22:10:40.294Z,14.10
2018-08-16T22:13:08.788Z,14.40
2018-08-16T22:15:37.624Z,13.83
2018-08-16T22:18:07.158Z,14.90
2018-08-16T22:20:35.661Z,14.90
2018-08-16T22:23:04.168Z,15.03
2018-08-16T22:25:32.631Z,13.80
2018-08-16T22:28:01.029Z,14.97
2018-08-16T22:30:29.866Z,13.07
2018-08-16T22:32:58.307Z,14.53
2018-08-16T22:35:26.913Z,14.10
2018-08-16T22:37:55.631Z,12.87
2018-08-16T22:40:24.067Z,15.43
2018-08-16T22:42:52.529Z,14.63
2018-08-16T22:45:20.993Z,13.50
2018-08-16T22:47:49.459Z,13.20
2018-08-16T22:50:17.915Z,13.60
2018-08-16T22:52:46.316Z,14.70
2018-08-16T22:55:14.707Z,14.27
2018-08-16T22:57:43.104Z,14.20
2018-08-16T23:00:12.242Z,15.10
2018-08-16T23:02:41.361Z,15.53
2018-08-16T23:05:09.883Z,14.50
2018-08-16T23:07:39.250Z,15.77
2018-08-16T23:10:07.903Z,14.60
2018-08-16T23:12:36.334Z,15.87
2018-08-16T23:15:05.653Z,14.70
2018-08-16T23:17:34.091Z,15.07
2018-08-16T23:20:02.484Z,16.60
2018-08-16T23:22:30.948Z,16.00
2018-08-16T23:24:59.392Z,14.43
2018-08-16T23:27:27.907Z,14.87
2018-08-16T23:29:56.396Z,15.07
2018-08-16T23:32:24.837Z,14.93
2018-08-16T23:34:53.312Z,14.83
2018-08-16T23:37:21.769Z,15.47
2018-08-16T23:39:50.157Z,14.97
2018-08-16T23:42:18.654Z,14.43
2018-08-16T23:44:47.371Z,15.00
2018-08-16T23:47:15.969Z,16.67
2018-08-16T23:49:44.444Z,15.67
2018-08-16T23:52:12.856Z,15.70
2018-08-16T23:54:41.314Z,16.70
2018-08-16T23:57:09.701Z,15.00
2018-08-16T23:59:38.144Z,15.00
